createdAt,value
2023-03-05T00:01:54.385Z,7.82
2023-03-05T00:04:21.560Z,7.89
2023-03-05T00:06:48.063Z,8.05
2023-03-05T00:09:14.763Z,8.09
2023-03-05T00:11:41.456Z,7.98
2023-03-05T00:14:08.238Z,7.84
2023-03-05T00:16:34.891Z,7.61
2023-03-05T00:19:01.687Z,7.75
2023-03-05T00:21:29.999Z,7.28
2023-03-05T00:23:57.850Z,7.57
2023-03-05T00:26:26.880Z,7.67
2023-03-05T00:28:55.882Z,7.74
2023-03-05T00:31:25.145Z,7.93
2023-03-05T00:33:53.315Z,8.11
2023-03-05T00:36:19.964Z,7.98
2023-03-05T00:38:46.698Z,8.22
2023-03-05T00:41:13.336Z,8.01
2023-03-05T00:43:39.869Z,7.76
2023-03-05T00:46:06.432Z,7.84
2023-03-05T00:48:32.988Z,8.13
2023-03-05T00:50:59.687Z,8.01
2023-03-05T00:53:26.371Z,8.09
2023-03-05T00:55:53.062Z,8.08
2023-03-05T00:58:19.727Z,7.95
2023-03-05T01:00:46.575Z,7.99
2023-03-05T01:03:13.111Z,7.88
2023-03-05T01:05:39.746Z,7.83
2023-03-05T01:08:06.403Z,8.07
2023-03-05T01:10:33.322Z,8.01
2023-03-05T01:13:00.075Z,8.16
2023-03-05T01:15:27.476Z,8.20
2023-03-05T01:17:54.173Z,8.18
2023-03-05T01:20:23.218Z,8.12
2023-03-05T01:22:50.332Z,8.31
2023-03-05T01:25:17.740Z,8.09
2023-03-05T01:27:45.027Z,8.17
2023-03-05T01:30:13.290Z,8.11
2023-03-05T01:32:40.338Z,8.27
2023-03-05T01:35:07.785Z,8.09
2023-03-05T01:37:34.587Z,8.24
2023-03-05T01:40:01.142Z,8.39
2023-03-05T01:42:28.027Z,8.39
2023-03-05T01:45:11.628Z,8.35
2023-03-05T01:47:38.716Z,8.36
2023-03-05T01:50:09.032Z,8.43
2023-03-05T01:52:39.723Z,8.42
2023-03-05T01:55:11.754Z,8.27
2023-03-05T01:57:42.332Z,8.04
2023-03-05T02:00:16.149Z,8.38
2023-03-05T02:02:44.164Z,8.39
2023-03-05T02:05:16.047Z,8.31
2023-03-05T02:07:43.293Z,8.27
2023-03-05T02:10:24.869Z,8.45
2023-03-05T02:12:54.620Z,8.46
2023-03-05T02:15:21.307Z,8.42
2023-03-05T02:17:47.888Z,8.36
2023-03-05T02:20:21.544Z,8.50
2023-03-05T02:22:48.235Z,8.37
2023-03-05T02:25:27.970Z,8.20
2023-03-05T02:28:03.621Z,8.19
2023-03-05T02:30:31.313Z,8.20
2023-03-05T02:32:58.454Z,8.21
2023-03-05T02:35:25.905Z,8.18
2023-03-05T02:37:52.506Z,8.32
2023-03-05T02:40:19.267Z,8.27
2023-03-05T02:42:46.631Z,8.26
2023-03-05T02:45:14.600Z,8.38
2023-03-05T02:47:41.661Z,8.49
2023-03-05T02:50:10.793Z,8.01
2023-03-05T02:52:38.354Z,8.31
2023-03-05T02:55:08.586Z,8.42
2023-03-05T02:57:35.119Z,8.15
2023-03-05T03:00:01.804Z,8.21
2023-03-05T03:02:28.491Z,8.40
2023-03-05T03:04:55.074Z,8.40
2023-03-05T03:07:21.569Z,8.36
2023-03-05T03:09:48.269Z,8.48
2023-03-05T03:12:15.111Z,8.56
2023-03-05T03:14:42.660Z,8.50
2023-03-05T03:17:20.141Z,8.54
2023-03-05T03:19:46.966Z,8.58
2023-03-05T03:22:15.361Z,8.71
2023-03-05T03:24:44.216Z,8.77
2023-03-05T03:27:10.893Z,8.36
2023-03-05T03:29:37.940Z,8.51
2023-03-05T03:32:04.811Z,8.54
2023-03-05T03:34:31.451Z,8.56
2023-03-05T03:36:57.993Z,8.65
2023-03-05T03:39:25.442Z,8.58
2023-03-05T03:41:53.547Z,8.68
2023-03-05T03:44:21.588Z,8.66
2023-03-05T03:46:49.690Z,8.28
2023-03-05T03:49:22.243Z,8.50
2023-03-05T03:51:50.662Z,8.64
2023-03-05T03:54:18.630Z,8.57
2023-03-05T03:56:45.663Z,8.79
2023-03-05T03:59:13.348Z,8.84
2023-03-05T04:01:40.169Z,8.74
2023-03-05T04:04:07.675Z,8.81
2023-03-05T04:06:34.753Z,8.77
2023-03-05T04:09:01.336Z,8.62
2023-03-05T04:11:27.865Z,8.59
2023-03-05T04:13:54.485Z,8.73
2023-03-05T04:16:21.269Z,8.90
2023-03-05T04:18:47.811Z,8.74
2023-03-05T04:21:14.392Z,8.88
2023-03-05T04:23:41.246Z,8.39
2023-03-05T04:26:07.841Z,8.43
2023-03-05T04:28:34.616Z,8.75
2023-03-05T04:31:01.255Z,8.32
2023-03-05T04:33:28.057Z,8.33
2023-03-05T04:35:54.715Z,8.50
2023-03-05T04:38:21.290Z,8.24
2023-03-05T04:40:48.316Z,8.44
2023-03-05T04:43:14.905Z,8.48
2023-03-05T04:45:43.047Z,8.61
2023-03-05T04:48:11.118Z,8.78
2023-03-05T04:50:38.190Z,8.68
2023-03-05T04:53:04.825Z,8.85
2023-03-05T04:55:31.385Z,8.56
2023-03-05T04:57:58.330Z,8.36
2023-03-05T05:00:25.227Z,8.24
2023-03-05T05:02:52.472Z,8.14
2023-03-05T05:05:21.972Z,8.04
2023-03-05T05:07:48.542Z,8.52
2023-03-05T05:10:15.992Z,8.55
2023-03-05T05:12:42.959Z,8.54
2023-03-05T05:15:10.136Z,8.40
2023-03-05T05:17:36.692Z,8.78
2023-03-05T05:20:06.753Z,8.88
2023-03-05T05:22:33.668Z,8.96
2023-03-05T05:25:00.381Z,8.76
2023-03-05T05:27:26.924Z,8.58
2023-03-05T05:29:53.496Z,8.61
2023-03-05T05:32:22.497Z,8.37
2023-03-05T05:34:53.442Z,8.64
2023-03-05T05:37:19.973Z,8.92
2023-03-05T05:39:50.114Z,8.83
2023-03-05T05:42:22.055Z,8.79
2023-03-05T05:44:49.180Z,8.86
2023-03-05T05:47:17.282Z,8.96
2023-03-05T05:49:43.847Z,9.01
2023-03-05T05:52:10.654Z,9.03
2023-03-05T05:54:37.298Z,9.08
2023-03-05T05:57:03.960Z,9.01
2023-03-05T05:59:30.529Z,8.95
2023-03-05T06:01:57.315Z,9.03
2023-03-05T06:04:23.864Z,8.76
2023-03-05T06:06:50.622Z,8.98
2023-03-05T06:09:17.618Z,9.15
2023-03-05T06:11:44.445Z,9.09
2023-03-05T06:14:12.654Z,9.14
2023-03-05T06:16:39.730Z,9.12
2023-03-05T06:19:06.468Z,9.00
2023-03-05T06:21:33.637Z,8.77
2023-03-05T06:24:00.647Z,8.83
2023-03-05T06:26:27.234Z,9.04
2023-03-05T06:28:54.261Z,9.03
2023-03-05T06:31:23.377Z,9.02
2023-03-05T06:33:50.396Z,9.11
2023-03-05T06:36:19.477Z,9.37
2023-03-05T06:38:48.386Z,9.41
2023-03-05T06:41:18.300Z,9.51
2023-03-05T06:43:46.670Z,9.45
2023-03-05T06:46:22.588Z,9.13
2023-03-05T06:48:49.728Z,9.30
2023-03-05T06:51:18.320Z,9.49
2023-03-05T06:53:46.771Z,9.45
2023-03-05T06:56:16.629Z,9.37
2023-03-05T06:58:45.731Z,8.96
2023-03-05T07:01:13.529Z,9.11
2023-03-05T07:03:40.868Z,9.23
2023-03-05T07:06:13.734Z,9.28
2023-03-05T07:08:40.264Z,9.28
2023-03-05T07:11:18.047Z,9.48
2023-03-05T07:13:47.693Z,9.48
2023-03-05T07:16:17.256Z,9.46
2023-03-05T07:18:44.554Z,9.59
2023-03-05T07:21:16.157Z,9.73
2023-03-05T07:23:42.958Z,9.65
2023-03-05T07:26:11.109Z,9.83
2023-03-05T07:28:37.687Z,9.88
2023-03-05T07:31:07.319Z,9.71
2023-03-05T07:33:35.227Z,9.87
2023-03-05T07:36:01.823Z,10.11
2023-03-05T07:38:28.431Z,9.85
2023-03-05T07:40:55.212Z,9.94
2023-03-05T07:43:21.764Z,9.86
2023-03-05T07:45:50.219Z,9.96
2023-03-05T07:48:20.818Z,9.77
2023-03-05T07:50:48.369Z,10.05
2023-03-05T07:53:15.488Z,9.99
2023-03-05T07:55:43.976Z,10.00
2023-03-05T07:58:11.501Z,10.07
2023-03-05T08:00:38.798Z,9.95
2023-03-05T08:03:05.436Z,9.92
2023-03-05T08:05:32.065Z,9.87
2023-03-05T08:07:58.897Z,9.75
2023-03-05T08:10:25.467Z,9.26
2023-03-05T08:12:52.116Z,9.28
2023-03-05T08:15:18.756Z,9.71
2023-03-05T08:17:45.317Z,9.72
2023-03-05T08:20:12.445Z,9.60
2023-03-05T08:22:39.000Z,9.85
2023-03-05T08:25:06.593Z,10.06
2023-03-05T08:27:33.297Z,10.22
2023-03-05T08:30:02.541Z,10.24
2023-03-05T08:32:29.241Z,9.47
2023-03-05T08:34:58.539Z,9.98
2023-03-05T08:37:25.293Z,9.51
2023-03-05T08:39:51.818Z,10.14
2023-03-05T08:42:18.348Z,9.94
2023-03-05T08:44:44.889Z,10.04
2023-03-05T08:47:11.414Z,10.04
2023-03-05T08:49:37.974Z,10.02
2023-03-05T08:52:04.840Z,10.13
2023-03-05T08:54:31.396Z,10.44
2023-03-05T08:56:57.940Z,10.60
2023-03-05T08:59:24.551Z,10.30
2023-03-05T09:01:51.148Z,10.46
2023-03-05T09:04:17.718Z,10.74
2023-03-05T09:06:44.451Z,10.89
2023-03-05T09:09:11.091Z,10.86
2023-03-05T09:11:37.728Z,11.03
2023-03-05T09:14:04.976Z,10.88
2023-03-05T09:16:31.945Z,10.87
2023-03-05T09:18:59.790Z,10.39
2023-03-05T09:21:26.423Z,10.50
2023-03-05T09:23:53.030Z,10.49
2023-03-05T09:26:20.116Z,10.78
2023-03-05T09:28:47.431Z,10.82
2023-03-05T09:31:14.544Z,11.01
2023-03-05T09:33:41.710Z,10.89
2023-03-05T09:36:19.624Z,10.96
2023-03-05T09:38:46.317Z,11.05
2023-03-05T09:41:26.652Z,10.56
2023-03-05T09:44:12.014Z,10.50
2023-03-05T09:47:07.819Z,10.68
2023-03-05T09:49:56.157Z,10.71
2023-03-05T09:52:39.037Z,10.75
2023-03-05T09:55:13.057Z,10.74
2023-03-05T09:57:44.499Z,10.83
2023-03-05T10:00:29.945Z,10.58
2023-03-05T10:03:02.073Z,10.44
2023-03-05T10:05:46.858Z,10.48
2023-03-05T10:08:16.732Z,10.51
2023-03-05T10:11:06.767Z,10.32
2023-03-05T10:13:41.318Z,10.33
2023-03-05T10:16:34.097Z,10.52
2023-03-05T10:19:04.592Z,10.59
2023-03-05T10:21:40.270Z,10.68
2023-03-05T10:24:40.906Z,10.90
2023-03-05T10:27:46.609Z,10.62
2023-03-05T10:30:43.675Z,10.54
2023-03-05T10:33:16.061Z,10.22
2023-03-05T10:35:57.712Z,10.29
2023-03-05T10:38:36.272Z,10.57
2023-03-05T10:41:16.815Z,10.49
2023-03-05T10:44:04.875Z,10.75
2023-03-05T10:46:35.887Z,10.66
2023-03-05T10:49:17.200Z,10.60
2023-03-05T10:52:03.465Z,10.80
2023-03-05T10:54:32.822Z,10.90
2023-03-05T10:57:16.194Z,10.94
2023-03-05T11:00:06.976Z,11.12
2023-03-05T11:02:34.310Z,10.81
2023-03-05T11:05:01.111Z,10.55
2023-03-05T11:07:36.089Z,11.28
2023-03-05T11:10:06.853Z,11.29
2023-03-05T11:12:38.096Z,10.98
2023-03-05T11:15:13.744Z,11.41
2023-03-05T11:18:03.135Z,11.54
2023-03-05T11:20:35.878Z,11.21
2023-03-05T11:23:26.258Z,11.53
2023-03-05T11:26:04.747Z,11.50
2023-03-05T11:28:41.216Z,11.67
2023-03-05T11:31:21.199Z,11.40
2023-03-05T11:34:20.952Z,11.31
2023-03-05T11:36:53.395Z,11.05
2023-03-05T11:39:22.591Z,11.22
2023-03-05T11:41:58.280Z,11.02
2023-03-05T11:44:34.170Z,11.47
2023-03-05T11:47:23.515Z,11.55
2023-03-05T11:49:57.593Z,11.24
2023-03-05T11:52:33.385Z,11.63
2023-03-05T11:55:02.820Z,11.91
2023-03-05T11:57:39.256Z,12.67
2023-03-05T12:00:13.393Z,12.81
2023-03-05T12:02:40.025Z,12.75
2023-03-05T12:05:07.724Z,12.63
2023-03-05T12:07:45.144Z,12.51
2023-03-05T12:10:17.569Z,12.75
2023-03-05T12:12:58.176Z,12.42
2023-03-05T12:16:00.118Z,12.32
2023-03-05T12:18:45.339Z,12.38
2023-03-05T12:21:32.769Z,11.47
2023-03-05T12:24:04.829Z,11.70
2023-03-05T12:26:53.104Z,12.21
2023-03-05T12:29:39.880Z,12.32
2023-03-05T12:32:31.324Z,11.71
2023-03-05T12:34:59.970Z,12.00
2023-03-05T12:37:27.134Z,12.13
2023-03-05T12:40:08.974Z,11.86
2023-03-05T12:42:45.803Z,11.80
2023-03-05T12:45:12.618Z,11.56
2023-03-05T12:47:43.941Z,11.60
2023-03-05T12:50:29.037Z,11.79
2023-03-05T12:53:07.399Z,11.55
2023-03-05T12:55:45.262Z,11.49
2023-03-05T12:58:19.839Z,11.83
2023-03-05T13:00:50.254Z,12.07
2023-03-05T13:03:24.997Z,12.82
2023-03-05T13:05:56.670Z,12.73
2023-03-05T13:08:32.018Z,12.45
2023-03-05T13:11:00.218Z,12.45
2023-03-05T13:13:29.657Z,12.52
2023-03-05T13:15:57.133Z,12.14
2023-03-05T13:18:27.360Z,12.35
2023-03-05T13:21:21.366Z,12.58
2023-03-05T13:23:58.928Z,12.78
2023-03-05T13:26:35.826Z,12.58
2023-03-05T13:29:14.887Z,12.19
2023-03-05T13:31:45.930Z,12.49
2023-03-05T13:34:23.193Z,12.75
2023-03-05T13:37:23.978Z,12.79
2023-03-05T13:40:06.983Z,13.01
2023-03-05T13:42:36.177Z,12.66
2023-03-05T13:45:07.281Z,12.75
2023-03-05T13:47:35.571Z,12.26
2023-03-05T13:50:08.237Z,12.61
2023-03-05T13:52:39.019Z,12.50
2023-03-05T13:55:13.569Z,12.59
2023-03-05T13:57:41.353Z,12.58
2023-03-05T14:00:42.100Z,12.67
2023-03-05T14:03:15.936Z,12.27
2023-03-05T14:05:45.911Z,12.42
2023-03-05T14:08:25.641Z,11.79
2023-03-05T14:10:57.179Z,12.08
2023-03-05T14:13:27.649Z,12.20
2023-03-05T14:16:05.946Z,12.39
2023-03-05T14:18:32.669Z,11.98
2023-03-05T14:21:08.811Z,11.86
2023-03-05T14:23:42.873Z,11.79
2023-03-05T14:26:29.006Z,11.87
2023-03-05T14:29:00.356Z,11.91
2023-03-05T14:31:29.046Z,11.62
2023-03-05T14:34:02.061Z,11.97
2023-03-05T14:36:30.328Z,11.98
2023-03-05T14:38:57.170Z,12.19
2023-03-05T14:41:40.982Z,12.45
2023-03-05T14:44:26.560Z,12.23
2023-03-05T14:46:53.168Z,11.95
2023-03-05T14:49:19.901Z,11.88
2023-03-05T14:51:47.044Z,12.26
2023-03-05T14:54:23.755Z,12.12
2023-03-05T14:56:50.567Z,11.91
2023-03-05T14:59:18.336Z,11.76
2023-03-05T15:01:45.063Z,11.58
2023-03-05T15:04:11.858Z,11.63
2023-03-05T15:06:40.719Z,11.87
2023-03-05T15:09:07.879Z,11.62
2023-03-05T15:11:34.492Z,11.61
2023-03-05T15:14:01.130Z,11.57
2023-03-05T15:16:27.709Z,11.55
2023-03-05T15:18:54.254Z,11.70
2023-03-05T15:21:20.850Z,11.73
2023-03-05T15:23:47.440Z,11.89
2023-03-05T15:26:15.074Z,11.38
2023-03-05T15:28:43.524Z,11.61
2023-03-05T15:31:10.985Z,11.58
2023-03-05T15:33:37.666Z,11.56
2023-03-05T15:36:04.573Z,11.22
2023-03-05T15:38:31.158Z,11.49
2023-03-05T15:41:00.545Z,11.45
2023-03-05T15:43:28.218Z,11.45
2023-03-05T15:45:54.875Z,11.35
2023-03-05T15:48:21.509Z,11.17
2023-03-05T15:50:48.114Z,11.36
2023-03-05T15:53:18.176Z,11.46
2023-03-05T15:55:45.800Z,11.44
2023-03-05T15:58:17.200Z,11.49
2023-03-05T16:00:44.361Z,11.55
2023-03-05T16:03:11.216Z,11.46
2023-03-05T16:05:38.382Z,11.45
2023-03-05T16:08:06.152Z,11.27
2023-03-05T16:10:33.369Z,11.37
2023-03-05T16:13:06.204Z,11.39
2023-03-05T16:15:35.022Z,11.20
2023-03-05T16:18:06.082Z,11.02
2023-03-05T16:20:32.716Z,11.24
2023-03-05T16:22:59.236Z,11.23
2023-03-05T16:25:26.708Z,11.16
2023-03-05T16:27:53.357Z,11.05
2023-03-05T16:30:20.182Z,11.16
2023-03-05T16:32:46.837Z,11.10
2023-03-05T16:35:13.804Z,11.11
2023-03-05T16:37:41.451Z,11.02
2023-03-05T16:40:10.319Z,11.09
2023-03-05T16:42:37.257Z,10.97
2023-03-05T16:45:04.847Z,10.77
2023-03-05T16:47:31.811Z,10.67
2023-03-05T16:49:59.331Z,10.76
2023-03-05T16:52:25.857Z,10.83
2023-03-05T16:54:52.750Z,10.82
2023-03-05T16:57:19.515Z,10.68
2023-03-05T16:59:46.092Z,10.71
2023-03-05T17:02:15.037Z,10.65
2023-03-05T17:04:42.505Z,10.58
2023-03-05T17:07:09.668Z,10.47
2023-03-05T17:09:36.999Z,10.63
2023-03-05T17:12:03.735Z,10.69
2023-03-05T17:14:30.270Z,10.76
2023-03-05T17:16:56.825Z,10.81
2023-03-05T17:19:23.388Z,10.66
2023-03-05T17:21:52.108Z,10.63
2023-03-05T17:24:20.816Z,10.66
2023-03-05T17:26:49.512Z,10.66
2023-03-05T17:29:16.192Z,10.61
2023-03-05T17:31:43.214Z,10.71
2023-03-05T17:34:10.157Z,10.77
2023-03-05T17:36:36.821Z,10.73
2023-03-05T17:39:04.463Z,10.71
2023-03-05T17:41:30.984Z,10.76
2023-03-05T17:43:57.580Z,10.81
2023-03-05T17:46:24.124Z,10.85
2023-03-05T17:48:50.690Z,10.85
2023-03-05T17:51:17.343Z,10.96
2023-03-05T17:53:44.344Z,10.98
2023-03-05T17:56:12.296Z,11.00
2023-03-05T17:58:40.143Z,11.07
2023-03-05T18:01:07.436Z,10.96
2023-03-05T18:03:34.513Z,11.00
2023-03-05T18:06:01.173Z,10.94
2023-03-05T18:08:29.293Z,10.95
2023-03-05T18:10:56.011Z,10.81
2023-03-05T18:13:22.675Z,10.84
2023-03-05T18:15:49.243Z,10.77
2023-03-05T18:18:17.486Z,10.74
2023-03-05T18:20:44.828Z,10.79
2023-03-05T18:23:11.769Z,10.86
2023-03-05T18:25:38.720Z,10.96
2023-03-05T18:28:13.700Z,11.03
2023-03-05T18:30:43.260Z,10.96
2023-03-05T18:33:24.185Z,11.01
2023-03-05T18:35:52.395Z,10.95
2023-03-05T18:38:24.054Z,10.92
2023-03-05T18:40:53.708Z,10.98
2023-03-05T18:43:22.070Z,11.09
2023-03-05T18:45:54.694Z,11.05
2023-03-05T18:48:22.473Z,10.95
2023-03-05T18:50:50.193Z,10.95
2023-03-05T18:53:17.077Z,10.96
2023-03-05T18:55:44.790Z,10.91
2023-03-05T18:58:15.351Z,10.99
2023-03-05T19:00:44.721Z,10.97
2023-03-05T19:03:11.666Z,10.95
2023-03-05T19:05:38.768Z,10.94
2023-03-05T19:08:05.889Z,10.95
2023-03-05T19:10:33.186Z,10.96
2023-03-05T19:13:39.874Z,10.97
2023-03-05T19:16:26.520Z,10.97
2023-03-05T19:19:20.192Z,11.06
2023-03-05T19:21:56.942Z,10.92
2023-03-05T19:24:25.108Z,10.93
2023-03-05T19:26:55.505Z,10.84
2023-03-05T19:29:27.067Z,10.89
2023-03-05T19:31:54.366Z,10.90
2023-03-05T19:34:21.581Z,10.97
2023-03-05T19:36:48.161Z,10.95
2023-03-05T19:39:15.503Z,10.88
2023-03-05T19:41:42.210Z,10.86
2023-03-05T19:44:08.801Z,10.80
2023-03-05T19:46:35.392Z,10.85
2023-03-05T19:49:02.016Z,10.72
2023-03-05T19:51:29.155Z,10.84
2023-03-05T19:53:55.789Z,10.72
2023-03-05T19:56:22.537Z,10.84
2023-03-05T19:58:49.272Z,10.86
2023-03-05T20:01:25.814Z,10.90
2023-03-05T20:03:55.081Z,10.92
2023-03-05T20:06:23.044Z,10.97
2023-03-05T20:08:50.088Z,10.96
2023-03-05T20:11:17.811Z,11.02
2023-03-05T20:13:44.838Z,10.89
2023-03-05T20:16:19.447Z,10.95
2023-03-05T20:18:46.779Z,10.91
2023-03-05T20:21:21.047Z,10.96
2023-03-05T20:23:47.718Z,10.96
2023-03-05T20:26:14.248Z,11.00
2023-03-05T20:28:40.799Z,10.96
2023-03-05T20:31:07.382Z,10.95
2023-03-05T20:33:34.015Z,11.00
2023-03-05T20:36:01.256Z,10.94
2023-03-05T20:38:30.265Z,10.76
2023-03-05T20:41:06.005Z,10.66
2023-03-05T20:43:35.762Z,10.44
2023-03-05T20:46:03.441Z,10.58
2023-03-05T20:48:32.580Z,10.42
2023-03-05T20:51:10.806Z,10.63
2023-03-05T20:53:37.344Z,10.76
2023-03-05T20:56:03.993Z,10.72
2023-03-05T20:58:30.505Z,10.78
2023-03-05T21:00:57.148Z,10.68
2023-03-05T21:03:25.565Z,10.75
2023-03-05T21:05:55.635Z,10.72
2023-03-05T21:08:22.554Z,10.77
2023-03-05T21:10:49.491Z,10.58
2023-03-05T21:13:16.215Z,10.59
2023-03-05T21:15:42.773Z,10.56
2023-03-05T21:18:09.320Z,10.54
2023-03-05T21:20:36.029Z,10.60
2023-03-05T21:23:03.782Z,10.58
2023-03-05T21:25:32.417Z,10.49
2023-03-05T21:28:11.572Z,10.59
2023-03-05T21:30:44.811Z,10.68
2023-03-05T21:33:14.119Z,10.62
2023-03-05T21:35:41.301Z,10.70
2023-03-05T21:38:08.899Z,10.67
2023-03-05T21:40:43.475Z,10.64
2023-03-05T21:43:14.016Z,10.79
2023-03-05T21:45:41.097Z,10.87
2023-03-05T21:48:08.457Z,10.86
2023-03-05T21:50:38.728Z,10.92
2023-03-05T21:53:05.447Z,10.82
2023-03-05T21:56:07.410Z,10.84
2023-03-05T21:58:36.402Z,10.80
2023-03-05T22:01:03.204Z,10.94
2023-03-05T22:03:30.318Z,10.84
2023-03-05T22:05:57.133Z,10.94
2023-03-05T22:08:24.391Z,10.86
2023-03-05T22:10:51.596Z,10.80
2023-03-05T22:13:19.976Z,10.73
2023-03-05T22:15:52.713Z,10.71
2023-03-05T22:18:23.343Z,10.60
2023-03-05T22:20:50.652Z,10.79
2023-03-05T22:23:18.432Z,10.72
2023-03-05T22:25:45.390Z,10.74
2023-03-05T22:28:13.098Z,10.69
2023-03-05T22:30:44.151Z,10.62
2023-03-05T22:33:11.140Z,10.69
2023-03-05T22:35:39.826Z,10.71
2023-03-05T22:38:07.723Z,10.67
2023-03-05T22:40:34.668Z,10.54
2023-03-05T22:43:01.180Z,10.51
2023-03-05T22:45:28.565Z,10.47
2023-03-05T22:47:55.143Z,10.28
2023-03-05T22:50:22.008Z,10.19
2023-03-05T22:52:48.530Z,10.20
2023-03-05T22:55:16.914Z,10.33
2023-03-05T22:57:43.940Z,10.36
2023-03-05T23:00:21.426Z,10.40
2023-03-05T23:02:48.046Z,10.20
2023-03-05T23:05:14.815Z,10.16
2023-03-05T23:07:42.785Z,10.16
2023-03-05T23:10:16.302Z,10.23
2023-03-05T23:12:46.304Z,10.26
2023-03-05T23:15:16.689Z,10.27
2023-03-05T23:17:43.394Z,10.32
2023-03-05T23:20:11.553Z,10.40
2023-03-05T23:22:39.926Z,10.43
2023-03-05T23:25:07.296Z,10.39
2023-03-05T23:27:34.224Z,10.22
2023-03-05T23:30:22.084Z,10.29
2023-03-05T23:32:56.363Z,10.36
2023-03-05T23:35:32.197Z,10.28
2023-03-05T23:38:00.599Z,10.33
2023-03-05T23:40:30.139Z,10.32
2023-03-05T23:42:56.844Z,10.36
2023-03-05T23:45:24.194Z,10.24
2023-03-05T23:47:51.549Z,10.24
2023-03-05T23:50:33.575Z,10.30
2023-03-05T23:53:02.160Z,10.31
2023-03-05T23:55:43.795Z,10.17
2023-03-05T23:58:11.193Z,10.22
